»·PEaware :: ASA300 KSEA-KSFO

ASA300 :: KSEA-KSFO

FLIGHT INFORMATION

Flight Status: Arrived
Operator:
Alaska Airlines
More flights by this operator :: More flights under this callsign
Pilot: Anonymous 20536 (20536)
Aircraft: BOEING 737-800
(B738)
More flights by this aircraft type
Origin: KSEA Seattle-Tacoma Intl
United States
Destination: KSFO San Francisco Intl
United States
More flights between these airports :: More routes between these airports
Route: HAROB6 FEPOT Q3 FOWND MLBEC BDEGA3
File this flight plan on PilotEdge
Remarks:
Altitude:
(Current/Filed)
35,000ft
Speed:
(Current/Filed)
380kts
Departed: 28-Sep-18 03:44 PM
Arrived: 28-Sep-18 05:33 PM
Distance/Time
Traveled:
590nm/1:49
Distance/Time
To Go:
Arrived

Flight Plot

Page will automatically refresh every two minutes.

Flight plan parsing failed; only flown route is shown


Map Options




Map Legend


Flown Route
Filed Route
Departure Airport
Arrival Airport
Navaid (VOR, NDB)
Fix

Horizontal Profiles

Position Reports

Time Latitude Longitude Heading Altitude Ground
Speed
28-Sep-18 15:34 47.446836 -122.303874 220 441ft 0kts
28-Sep-18 15:35 47.446836 -122.303874 220 441ft 0kts
28-Sep-18 15:36 47.446836 -122.303874 220 441ft 0kts
28-Sep-18 15:37 47.446836 -122.303874 220 441ft 0kts
28-Sep-18 15:38 47.446836 -122.303874 220 441ft 0kts
28-Sep-18 15:39 47.446837 -122.303874 220 441ft 0kts
28-Sep-18 15:40 47.447018 -122.303415 277 441ft 2kts
28-Sep-18 15:41 47.446929 -122.303138 306 441ft 0kts
28-Sep-18 15:42 47.447320 -122.303617 321 441ft 11kts
28-Sep-18 15:43 47.448179 -122.305713 259 441ft 13kts
28-Sep-18 15:44 47.443074 -122.306331 180 441ft 19kts
28-Sep-18 15:45 47.438075 -122.307304 271 441ft 17kts
28-Sep-18 15:46 47.442564 -122.311172 0 441ft 91kts
28-Sep-18 15:47 47.487400 -122.310580 358 2036ft 201kts
28-Sep-18 15:48 47.552401 -122.312452 346 4539ft 260kts
28-Sep-18 15:49 47.609756 -122.376031 297 7842ft 276kts
28-Sep-18 15:50 47.609073 -122.489239 242 10520ft 310kts
28-Sep-18 15:51 47.546772 -122.582631 223 13268ft 332kts
28-Sep-18 15:52 47.481020 -122.681025 227 14967ft 341kts
28-Sep-18 15:53 47.414414 -122.782342 227 16202ft 350kts
28-Sep-18 15:54 47.345715 -122.886443 227 18609ft 365kts
28-Sep-18 15:55 47.273208 -122.995865 226 20944ft 376kts
28-Sep-18 15:56 47.193501 -123.095923 217 22990ft 389kts
28-Sep-18 15:57 47.103415 -123.188823 205 24856ft 402kts
28-Sep-18 15:58 46.992713 -123.215933 180 26572ft 415kts
28-Sep-18 15:59 46.880212 -123.212328 180 28059ft 426kts
28-Sep-18 16:00 46.761312 -123.208389 180 29589ft 432kts
28-Sep-18 16:01 46.642526 -123.204531 181 31388ft 427kts
28-Sep-18 16:02 46.525017 -123.200771 181 33000ft 422kts
28-Sep-18 16:03 46.408812 -123.197044 181 34586ft 414kts
28-Sep-18 16:04 46.291198 -123.193321 181 34819ft 438kts
28-Sep-18 16:05 46.165376 -123.189292 181 34807ft 466kts
28-Sep-18 16:06 46.034806 -123.185067 181 34797ft 474kts
28-Sep-18 16:07 45.903218 -123.180818 181 34777ft 474kts
28-Sep-18 16:08 45.777679 -123.176781 181 34781ft 474kts
28-Sep-18 16:09 45.647348 -123.172583 181 34788ft 470kts
28-Sep-18 16:10 45.516898 -123.168403 181 34789ft 471kts
28-Sep-18 16:11 45.386126 -123.164203 181 34780ft 471kts
28-Sep-18 16:12 45.255482 -123.160007 181 34779ft 471kts
28-Sep-18 16:13 45.125205 -123.155826 181 34780ft 467kts
28-Sep-18 16:14 44.995350 -123.151656 181 34777ft 468kts
28-Sep-18 16:15 44.867265 -123.147542 181 34781ft 468kts
28-Sep-18 16:16 44.738219 -123.143399 181 34780ft 468kts
28-Sep-18 16:17 44.609416 -123.139264 180 34802ft 463kts
28-Sep-18 16:18 44.480693 -123.135113 180 34797ft 464kts
28-Sep-18 16:19 44.351976 -123.130537 180 34797ft 464kts
28-Sep-18 16:20 44.223144 -123.126038 180 34800ft 464kts
28-Sep-18 16:21 44.095369 -123.121599 180 34797ft 461kts
28-Sep-18 16:22 43.967483 -123.117161 180 34796ft 461kts
28-Sep-18 16:23 43.844078 -123.112883 180 34797ft 461kts
28-Sep-18 16:24 43.716092 -123.108439 180 34799ft 459kts
28-Sep-18 16:25 43.589847 -123.104074 179 34799ft 456kts
28-Sep-18 16:26 43.463260 -123.099684 179 34798ft 456kts
28-Sep-18 16:27 43.337154 -123.095312 179 34795ft 456kts
28-Sep-18 16:28 43.210657 -123.090919 179 34794ft 450kts
28-Sep-18 16:29 43.086211 -123.086615 179 34796ft 450kts
28-Sep-18 16:30 42.961925 -123.082308 179 34795ft 449kts
28-Sep-18 16:31 42.840046 -123.078088 179 34955ft 450kts
28-Sep-18 16:32 42.715452 -123.073765 179 34956ft 444kts
28-Sep-18 16:33 42.592608 -123.069512 179 34953ft 444kts
28-Sep-18 16:34 42.469446 -123.065254 179 34816ft 444kts
28-Sep-18 16:35 42.346429 -123.061292 179 34788ft 444kts
28-Sep-18 16:36 42.223514 -123.057368 179 34791ft 441kts
28-Sep-18 16:37 42.102122 -123.053497 179 34786ft 439kts
28-Sep-18 16:38 41.980309 -123.049617 179 34785ft 438kts
28-Sep-18 16:39 41.860736 -123.045808 179 34863ft 439kts
28-Sep-18 16:40 41.739154 -123.041935 179 34866ft 438kts
28-Sep-18 16:41 41.619296 -123.038113 179 34866ft 433kts
28-Sep-18 16:42 41.499270 -123.034293 179 34862ft 432kts
28-Sep-18 16:43 41.379638 -123.030485 179 34932ft 433kts
28-Sep-18 16:44 41.259465 -123.026772 180 34933ft 432kts
28-Sep-18 16:45 41.140898 -123.023259 180 35040ft 428kts
28-Sep-18 16:46 41.022391 -123.019779 180 35041ft 427kts
28-Sep-18 16:47 40.904345 -123.016315 180 35038ft 427kts
28-Sep-18 16:48 40.791008 -123.012988 180 35049ft 427kts
28-Sep-18 16:49 40.673598 -123.009522 180 35049ft 419kts
28-Sep-18 16:50 40.556958 -123.006117 180 35047ft 421kts
28-Sep-18 16:51 40.440026 -123.002686 180 35045ft 421kts
28-Sep-18 16:52 40.323313 -122.999261 180 35042ft 421kts
28-Sep-18 16:53 40.206846 -122.995825 180 35034ft 415kts
28-Sep-18 16:54 40.091336 -122.992449 180 34937ft 417kts
28-Sep-18 16:55 39.975946 -122.989062 180 34790ft 416kts
28-Sep-18 16:56 39.865658 -122.985828 180 34807ft 417kts
28-Sep-18 16:57 39.750380 -122.982443 180 34801ft 417kts
28-Sep-18 16:58 39.635599 -122.979059 181 34846ft 413kts
28-Sep-18 16:59 39.521270 -122.975713 181 34845ft 413kts
28-Sep-18 17:00 39.406743 -122.972355 181 34843ft 413kts
28-Sep-18 17:01 39.292239 -122.968996 181 34840ft 413kts
28-Sep-18 17:02 39.178025 -122.965616 181 34837ft 409kts
28-Sep-18 17:03 39.083023 -122.962873 181 34837ft 410kts
28-Sep-18 17:04 38.955794 -122.960347 182 34830ft 366kts
28-Sep-18 17:05 38.858753 -122.954321 172 34862ft 375kts
28-Sep-18 17:06 38.774774 -122.929586 171 33926ft 373kts
28-Sep-18 17:07 38.675285 -122.899956 171 31131ft 369kts
28-Sep-18 17:08 38.558004 -122.865341 170 27883ft 371kts
28-Sep-18 17:09 38.476081 -122.841164 170 25679ft 359kts
28-Sep-18 17:10 38.380705 -122.813109 169 23020ft 348kts
28-Sep-18 17:11 38.288718 -122.786133 168 20522ft 337kts
28-Sep-18 17:12 38.199673 -122.760101 168 18130ft 326kts
28-Sep-18 17:13 38.112575 -122.734780 168 16081ft 325kts
28-Sep-18 17:14 38.025493 -122.709533 168 13722ft 316kts
28-Sep-18 17:15 37.941220 -122.685174 167 11540ft 309kts
28-Sep-18 17:16 37.867086 -122.639960 142 10998ft 310kts
28-Sep-18 17:17 37.801956 -122.570077 142 10979ft 291kts
28-Sep-18 17:18 37.743087 -122.507557 142 11000ft 275kts
28-Sep-18 17:19 37.687317 -122.448102 143 10983ft 240kts
28-Sep-18 17:20 37.638267 -122.395931 143 11001ft 229kts
28-Sep-18 17:21 37.586493 -122.350588 154 9954ft 234kts
28-Sep-18 17:22 37.532353 -122.316072 156 8396ft 220kts
28-Sep-18 17:23 37.478370 -122.281730 156 6692ft 217kts
28-Sep-18 17:24 37.450102 -122.216580 113 6012ft 203kts
28-Sep-18 17:25 37.434431 -122.149684 112 5999ft 201kts
28-Sep-18 17:26 37.418675 -122.081095 102 5981ft 209kts
28-Sep-18 17:27 37.456235 -122.035188 345 5217ft 206kts
28-Sep-18 17:28 37.492940 -122.078539 294 4073ft 180kts
28-Sep-18 17:29 37.516727 -122.133377 293 3970ft 182kts
28-Sep-18 17:30 37.540147 -122.188542 294 3016ft 176kts
28-Sep-18 17:31 37.563066 -122.242838 293 2069ft 176kts
28-Sep-18 17:32 37.583955 -122.292299 293 1186ft 139kts
28-Sep-18 17:33 37.601665 -122.334570 293 518ft 140kts
28-Sep-18 17:34 37.617557 -122.372333 297 21ft 49kts
28-Sep-18 17:35 37.618864 -122.378827 251 20ft 13kts
28-Sep-18 17:36 37.613598 -122.381648 208 21ft 24kts
28-Sep-18 17:37 37.610510 -122.386516 298 21ft 20kts
28-Sep-18 17:38 37.611965 -122.391753 6 21ft 21kts
28-Sep-18 17:39 37.613769 -122.389525 115 21ft 0kts

Navigation Log

Ident Type
Flight plan parsing failed, navigation log unavailable